createdAt,value
2023-01-29T00:03:45.678Z,-1.12
2023-01-29T00:08:48.881Z,0.38
2023-01-29T00:13:55.160Z,0.50
2023-01-29T00:18:57.769Z,0.30
2023-01-29T00:24:00.990Z,0.68
2023-01-29T00:29:03.979Z,0.33
2023-01-29T00:34:06.516Z,0.13
2023-01-29T00:39:17.894Z,0.10
2023-01-29T00:44:48.884Z,0.11
2023-01-29T00:49:51.600Z,0.49
2023-01-29T00:54:55.689Z,0.42
2023-01-29T00:59:58.792Z,0.49
2023-01-29T01:05:15.355Z,0.49
2023-01-29T01:10:25.506Z,0.18
2023-01-29T01:15:40.270Z,-0.25
2023-01-29T01:20:43.274Z,-0.30
2023-01-29T01:25:46.351Z,0.10
2023-01-29T01:30:59.270Z,0.08
2023-01-29T01:36:11.896Z,0.63
2023-01-29T01:41:17.211Z,0.07
2023-01-29T01:46:31.977Z,0.42
2023-01-29T01:51:40.484Z,-0.57
2023-01-29T01:56:49.781Z,-1.10
2023-01-29T02:01:55.028Z,0.73
2023-01-29T02:07:18.987Z,0.80
2023-01-29T02:12:22.328Z,-0.72
2023-01-29T02:17:25.045Z,0.54
2023-01-29T02:22:46.763Z,0.84
2023-01-29T02:27:49.461Z,0.88
2023-01-29T02:33:01.865Z,0.85
2023-01-29T02:38:04.351Z,0.81
2023-01-29T02:43:43.192Z,0.79
2023-01-29T02:49:16.021Z,0.61
2023-01-29T02:54:30.308Z,-0.31
2023-01-29T02:59:38.577Z,-0.04
2023-01-29T03:04:48.511Z,0.08
2023-01-29T03:09:54.031Z,-1.07
2023-01-29T03:15:12.492Z,0.45
2023-01-29T03:20:19.864Z,0.38
2023-01-29T03:25:43.602Z,0.47
2023-01-29T03:31:09.993Z,0.46
2023-01-29T03:36:46.228Z,0.04
2023-01-29T03:41:59.397Z,-0.35
2023-01-29T03:47:28.535Z,-1.29
2023-01-29T03:52:43.065Z,0.37
2023-01-29T03:58:01.987Z,0.11
2023-01-29T04:03:23.149Z,0.32
2023-01-29T04:08:33.390Z,0.35
2023-01-29T04:13:37.459Z,0.22
2023-01-29T04:18:40.583Z,-0.03
2023-01-29T04:23:43.218Z,-0.80
2023-01-29T04:28:59.625Z,0.21
2023-01-29T04:34:24.062Z,-0.37
2023-01-29T04:39:44.552Z,-0.62
2023-01-29T04:45:19.466Z,0.18
2023-01-29T04:50:58.350Z,0.27
2023-01-29T04:56:09.633Z,-0.05
2023-01-29T05:01:16.985Z,0.17
2023-01-29T05:06:21.649Z,-1.65
2023-01-29T05:11:26.121Z,0.10
2023-01-29T05:16:42.899Z,-1.59
2023-01-29T05:21:48.977Z,-0.18
2023-01-29T05:27:13.167Z,0.16
2023-01-29T05:32:17.027Z,0.14
2023-01-29T05:37:19.801Z,0.19
2023-01-29T05:42:22.480Z,-0.75
2023-01-29T05:47:25.207Z,-0.33
2023-01-29T05:52:27.776Z,-0.28
2023-01-29T05:57:41.402Z,0.21
2023-01-29T06:02:54.436Z,-0.16
2023-01-29T06:08:01.054Z,0.08
2023-01-29T06:13:03.802Z,-0.87
2023-01-29T06:18:06.658Z,-0.64
2023-01-29T06:23:09.524Z,-0.22
2023-01-29T06:28:12.110Z,-0.18
2023-01-29T06:33:14.879Z,-0.63
2023-01-29T06:38:17.953Z,-1.32
2023-01-29T06:43:21.537Z,-1.27
2023-01-29T06:48:25.673Z,0.30
2023-01-29T06:53:28.377Z,-0.87
2023-01-29T06:58:31.176Z,0.18
2023-01-29T07:03:34.672Z,0.33
2023-01-29T07:08:39.297Z,0.28
2023-01-29T07:13:41.895Z,-0.49
2023-01-29T07:18:44.490Z,-0.81
2023-01-29T07:23:47.277Z,0.17
2023-01-29T07:28:49.866Z,-0.10
2023-01-29T07:33:52.692Z,0.38
2023-01-29T07:38:55.735Z,-0.26
2023-01-29T07:43:58.339Z,-0.80
2023-01-29T07:49:00.904Z,-0.49
2023-01-29T07:54:03.628Z,0.43
2023-01-29T07:59:13.704Z,0.25
2023-01-29T08:04:16.426Z,-1.12
2023-01-29T08:09:19.382Z,-1.10
2023-01-29T08:14:32.006Z,0.77
2023-01-29T08:19:44.587Z,0.88
2023-01-29T08:24:54.147Z,-0.02
2023-01-29T08:30:02.819Z,0.15
2023-01-29T08:35:05.672Z,0.03
2023-01-29T08:40:10.582Z,0.58
2023-01-29T08:45:21.287Z,0.75
2023-01-29T08:50:35.796Z,1.12
2023-01-29T08:55:40.081Z,1.44
2023-01-29T09:00:43.056Z,1.14
2023-01-29T09:05:47.520Z,0.09
2023-01-29T09:10:50.076Z,1.38
2023-01-29T09:15:53.021Z,0.32
2023-01-29T09:21:06.090Z,0.29
2023-01-29T09:26:10.401Z,1.49
2023-01-29T09:31:13.153Z,1.12
2023-01-29T09:36:15.881Z,-0.14
2023-01-29T09:41:39.800Z,0.02
2023-01-29T09:46:49.149Z,1.44
2023-01-29T09:51:59.416Z,2.19
2023-01-29T09:57:02.529Z,1.90
2023-01-29T10:02:10.016Z,2.88
2023-01-29T10:08:04.065Z,3.18
2023-01-29T10:13:25.116Z,3.36
2023-01-29T10:18:34.499Z,4.11
2023-01-29T10:23:48.105Z,4.40
2023-01-29T10:29:03.437Z,4.01
2023-01-29T10:34:25.124Z,3.94
2023-01-29T10:39:38.659Z,4.26
2023-01-29T10:45:13.967Z,4.39
2023-01-29T10:50:20.276Z,3.07
2023-01-29T10:55:52.033Z,3.92
2023-01-29T11:00:56.411Z,4.47
2023-01-29T11:06:25.069Z,5.16
2023-01-29T11:11:53.170Z,5.23
2023-01-29T11:16:57.406Z,4.74
2023-01-29T11:22:02.763Z,4.61
2023-01-29T11:27:15.063Z,4.61
2023-01-29T11:32:24.754Z,4.50
2023-01-29T11:37:43.748Z,4.73
2023-01-29T11:42:48.676Z,5.16
2023-01-29T11:47:56.299Z,3.44
2023-01-29T11:53:04.610Z,3.29
2023-01-29T11:58:17.700Z,3.11
2023-01-29T12:03:33.668Z,4.60
2023-01-29T12:08:39.941Z,3.58
2023-01-29T12:13:58.716Z,4.24
2023-01-29T12:19:29.238Z,4.14
2023-01-29T12:24:45.579Z,4.30
2023-01-29T12:30:11.169Z,4.14
2023-01-29T12:35:48.946Z,4.36
2023-01-29T12:40:58.759Z,4.53
2023-01-29T12:46:03.759Z,2.73
2023-01-29T12:51:10.283Z,4.15
2023-01-29T12:56:20.368Z,3.81
2023-01-29T13:01:37.743Z,4.16
2023-01-29T13:06:46.323Z,4.06
2023-01-29T13:11:59.478Z,3.97
2023-01-29T13:17:11.651Z,2.75
2023-01-29T13:22:22.053Z,3.18
2023-01-29T13:27:29.015Z,4.13
2023-01-29T13:32:36.807Z,3.59
2023-01-29T13:37:43.778Z,4.48
2023-01-29T13:42:49.887Z,2.65
2023-01-29T13:47:54.398Z,3.02
2023-01-29T13:53:03.104Z,2.66
2023-01-29T13:58:19.667Z,4.01
2023-01-29T14:03:26.266Z,4.48
2023-01-29T14:08:46.488Z,4.07
2023-01-29T14:13:51.154Z,1.63
2023-01-29T14:19:02.380Z,1.68
2023-01-29T14:24:23.005Z,3.72
2023-01-29T14:29:35.201Z,3.36
2023-01-29T14:34:52.180Z,3.35
2023-01-29T14:40:00.289Z,3.12
2023-01-29T14:45:23.188Z,3.51
2023-01-29T14:50:32.773Z,3.48
2023-01-29T14:55:44.024Z,3.40
2023-01-29T15:00:53.921Z,3.24
2023-01-29T15:06:00.413Z,3.24
2023-01-29T15:11:29.259Z,1.40
2023-01-29T15:16:47.063Z,2.48
2023-01-29T15:22:05.121Z,2.25
2023-01-29T15:27:14.835Z,2.65
2023-01-29T15:32:32.556Z,2.55
2023-01-29T15:37:38.013Z,1.26
2023-01-29T15:42:49.483Z,2.41
2023-01-29T15:47:55.915Z,1.89
2023-01-29T15:53:04.546Z,0.40
2023-01-29T15:58:16.039Z,1.80
2023-01-29T16:03:29.246Z,1.29
2023-01-29T16:08:35.122Z,0.87
2023-01-29T16:13:48.068Z,1.01
2023-01-29T16:19:01.374Z,0.52
2023-01-29T16:24:23.209Z,0.34
2023-01-29T16:29:34.969Z,1.47
2023-01-29T16:34:44.701Z,0.93
2023-01-29T16:39:50.236Z,1.16
2023-01-29T16:45:06.067Z,0.24
2023-01-29T16:50:40.682Z,1.13
2023-01-29T16:55:50.572Z,0.57
2023-01-29T17:01:05.871Z,-1.03
2023-01-29T17:06:22.051Z,-0.36
2023-01-29T17:11:33.932Z,0.14
2023-01-29T17:16:50.955Z,0.45
2023-01-29T17:21:54.722Z,-0.14
2023-01-29T17:26:58.364Z,-0.29
2023-01-29T17:32:02.190Z,0.63
2023-01-29T17:37:05.907Z,0.38
2023-01-29T17:42:14.322Z,-1.10
2023-01-29T17:47:17.787Z,0.51
2023-01-29T17:52:21.626Z,0.17
2023-01-29T17:57:26.362Z,-0.03
2023-01-29T18:02:30.109Z,-0.64
2023-01-29T18:07:44.425Z,0.08
2023-01-29T18:12:48.754Z,0.27
2023-01-29T18:17:53.713Z,0.06
2023-01-29T18:23:09.081Z,0.38
2023-01-29T18:28:17.927Z,-0.91
2023-01-29T18:33:21.912Z,-0.20
2023-01-29T18:38:25.442Z,-1.74
2023-01-29T18:43:29.464Z,0.00
2023-01-29T18:48:34.392Z,-0.53
2023-01-29T18:53:37.997Z,-0.35
2023-01-29T18:58:41.766Z,-0.44
2023-01-29T19:03:55.237Z,-1.41
2023-01-29T19:09:19.361Z,-0.73
2023-01-29T19:14:32.287Z,-0.02
2023-01-29T19:19:37.257Z,-0.23
2023-01-29T19:24:40.010Z,-0.72
2023-01-29T19:29:42.697Z,-1.78
2023-01-29T19:34:45.371Z,-1.85
2023-01-29T19:39:48.211Z,-1.23
2023-01-29T19:44:52.579Z,-0.93
2023-01-29T19:49:55.542Z,-0.38
2023-01-29T19:54:59.863Z,-1.89
2023-01-29T20:00:03.094Z,-0.19
2023-01-29T20:05:06.632Z,-0.52
2023-01-29T20:10:28.482Z,-0.47
2023-01-29T20:15:31.258Z,-1.24
2023-01-29T20:20:33.918Z,-2.34
2023-01-29T20:25:38.270Z,-2.04
2023-01-29T20:30:42.643Z,-0.85
2023-01-29T20:35:46.276Z,-0.94
2023-01-29T20:40:50.405Z,-1.90
2023-01-29T20:46:05.984Z,-2.72
2023-01-29T20:51:13.878Z,-1.02
2023-01-29T20:56:18.316Z,-0.92
2023-01-29T21:01:25.728Z,-2.01
2023-01-29T21:06:30.341Z,-1.50
2023-01-29T21:11:34.461Z,-1.59
2023-01-29T21:16:37.570Z,-1.53
2023-01-29T21:21:50.983Z,-0.96
2023-01-29T21:26:53.878Z,-2.26
2023-01-29T21:31:56.682Z,-2.61
2023-01-29T21:36:59.485Z,-1.16
2023-01-29T21:42:20.841Z,-1.67
2023-01-29T21:47:23.543Z,-0.94
2023-01-29T21:52:26.275Z,-0.83
2023-01-29T21:57:28.929Z,-1.28
2023-01-29T22:02:32.857Z,-1.53
2023-01-29T22:07:45.654Z,-1.05
2023-01-29T22:13:00.478Z,-1.45
2023-01-29T22:18:03.994Z,-2.62
2023-01-29T22:23:06.795Z,-2.14
2023-01-29T22:28:09.380Z,-2.14
2023-01-29T22:33:16.825Z,-1.67
2023-01-29T22:38:19.569Z,-2.37
2023-01-29T22:43:22.627Z,-3.31
2023-01-29T22:48:25.545Z,-2.53
2023-01-29T22:53:28.115Z,-2.43
2023-01-29T22:58:31.957Z,-3.30
2023-01-29T23:03:43.861Z,-2.08
2023-01-29T23:08:46.447Z,-3.39
2023-01-29T23:13:59.344Z,-3.24
2023-01-29T23:19:01.967Z,-2.66
2023-01-29T23:24:05.079Z,-1.84
2023-01-29T23:29:07.835Z,-2.14
2023-01-29T23:34:10.512Z,-3.30
2023-01-29T23:39:13.398Z,-3.73
2023-01-29T23:44:26.568Z,-1.82
2023-01-29T23:49:29.412Z,-2.40
2023-01-29T23:54:32.167Z,-2.86
2023-01-29T23:59:34.875Z,-2.59
